createdAt,value
2022-08-01T00:01:59.005Z,2.75
2022-08-01T00:04:26.924Z,3.10
2022-08-01T00:06:54.754Z,2.90
2022-08-01T00:09:24.244Z,2.85
2022-08-01T00:11:59.818Z,3.10
2022-08-01T00:14:32.184Z,3.28
2022-08-01T00:17:05.389Z,2.97
2022-08-01T00:19:34.893Z,3.22
2022-08-01T00:22:02.869Z,3.15
2022-08-01T00:26:58.984Z,3.20
2022-08-01T00:30:12.533Z,3.22
2022-08-01T00:32:16.128Z,3.13
2022-08-01T00:34:44.020Z,3.05
2022-08-01T00:37:15.955Z,2.67
2022-08-01T00:39:44.099Z,3.55
2022-08-01T00:42:13.702Z,2.90
2022-08-01T00:44:42.193Z,3.58
2022-08-01T00:47:10.323Z,2.70
2022-08-01T00:49:39.712Z,2.90
2022-08-01T00:54:36.363Z,2.80
2022-08-01T00:57:05.158Z,2.60
2022-08-01T01:02:15.312Z,2.83
2022-08-01T01:04:45.309Z,3.08
2022-08-01T01:09:54.567Z,3.00
2022-08-01T01:12:29.977Z,3.28
2022-08-01T01:15:10.475Z,3.13
2022-08-01T01:17:50.254Z,3.00
2022-08-01T01:20:26.386Z,3.13
2022-08-01T01:25:49.633Z,3.25
2022-08-01T01:30:59.353Z,2.95
2022-08-01T01:36:07.594Z,2.90
2022-08-01T01:41:13.725Z,3.28
2022-08-01T01:46:14.597Z,3.63
2022-08-01T01:48:45.739Z,3.13
2022-08-01T01:53:44.476Z,3.42
2022-08-01T01:56:13.692Z,3.30
2022-08-01T01:58:42.375Z,3.10
2022-08-01T02:06:15.610Z,3.40
2022-08-01T02:08:44.618Z,2.85
2022-08-01T02:11:22.344Z,3.05
2022-08-01T02:13:56.274Z,3.20
2022-08-01T02:16:29.781Z,3.53
2022-08-01T02:18:58.162Z,3.78
2022-08-01T02:21:30.052Z,3.15
2022-08-01T02:24:06.050Z,3.58
2022-08-01T02:26:35.922Z,3.28
2022-08-01T02:29:12.617Z,3.45
2022-08-01T02:31:48.039Z,4.20
2022-08-01T02:34:20.462Z,3.10
2022-08-01T02:36:50.251Z,3.42
2022-08-01T02:39:21.624Z,2.90
2022-08-01T02:41:52.248Z,3.05
2022-08-01T02:44:26.141Z,3.47
2022-08-01T02:49:35.097Z,3.22
2022-08-01T02:54:36.083Z,3.03
2022-08-01T02:57:06.754Z,3.10
2022-08-01T02:59:38.316Z,3.40
2022-08-01T03:02:12.956Z,2.85
2022-08-01T03:04:42.712Z,3.00
2022-08-01T03:07:12.731Z,3.00
2022-08-01T03:09:43.496Z,3.00
2022-08-01T03:14:44.228Z,3.05
2022-08-01T03:17:14.493Z,3.28
2022-08-01T03:19:43.632Z,3.05
2022-08-01T03:22:14.930Z,3.28
2022-08-01T03:24:44.736Z,3.10
2022-08-01T03:27:14.043Z,3.42
2022-08-01T03:29:43.743Z,3.17
2022-08-01T03:32:14.947Z,3.05
2022-08-01T03:34:43.623Z,3.00
2022-08-01T03:37:16.946Z,2.97
2022-08-01T03:39:49.337Z,3.75
2022-08-01T03:47:31.966Z,3.47
2022-08-01T03:50:01.320Z,2.92
2022-08-01T03:55:03.722Z,3.05
2022-08-01T03:57:36.680Z,3.20
2022-08-01T04:00:09.906Z,3.13
2022-08-01T04:02:40.772Z,3.08
2022-08-01T04:05:09.563Z,3.47
2022-08-01T04:07:37.974Z,2.78
2022-08-01T04:10:06.885Z,3.10
2022-08-01T04:15:04.342Z,2.60
2022-08-01T04:17:32.182Z,2.72
2022-08-01T04:20:01.412Z,3.05
2022-08-01T04:22:29.380Z,2.95
2022-08-01T04:24:59.661Z,2.72
2022-08-01T04:27:50.509Z,2.97
2022-08-01T04:30:24.376Z,3.13
2022-08-01T04:32:55.596Z,2.78
2022-08-01T04:43:16.880Z,2.58
2022-08-01T04:48:15.545Z,2.55
2022-08-01T04:50:45.381Z,3.30
2022-08-01T04:53:17.822Z,3.08
2022-08-01T04:55:46.969Z,2.13
2022-08-01T05:03:14.424Z,2.50
2022-08-01T05:05:42.354Z,2.17
2022-08-01T05:08:11.578Z,2.50
2022-08-01T05:10:39.572Z,2.50
2022-08-01T05:13:07.563Z,2.10
2022-08-01T05:18:04.992Z,2.60
2022-08-01T05:20:35.642Z,2.40
2022-08-01T05:28:20.930Z,2.22
2022-08-01T05:30:48.767Z,2.20
2022-08-01T05:33:16.635Z,2.00
2022-08-01T05:35:47.900Z,2.10
2022-08-01T05:38:16.982Z,2.15
2022-08-01T05:40:46.389Z,2.20
2022-08-01T05:43:14.260Z,2.03
2022-08-01T05:45:42.908Z,1.92
2022-08-01T05:48:10.708Z,1.85
2022-08-01T05:50:38.612Z,1.95
2022-08-01T05:53:06.563Z,2.10
2022-08-01T05:55:34.374Z,2.25
2022-08-01T05:58:03.722Z,1.95
2022-08-01T06:00:31.557Z,1.77
2022-08-01T06:02:59.887Z,2.03
2022-08-01T06:05:27.724Z,2.45
2022-08-01T06:07:55.721Z,1.83
2022-08-01T06:10:23.836Z,2.22
2022-08-01T06:12:51.735Z,2.20
2022-08-01T06:15:21.028Z,2.30
2022-08-01T06:20:16.973Z,2.03
2022-08-01T06:22:44.796Z,1.85
2022-08-01T06:25:21.338Z,1.95
2022-08-01T06:27:49.411Z,2.05
2022-08-01T06:30:17.423Z,2.05
2022-08-01T06:32:46.668Z,2.10
2022-08-01T06:35:14.502Z,2.03
2022-08-01T06:37:42.399Z,2.17
2022-08-01T06:40:16.891Z,1.98
2022-08-01T06:42:46.844Z,2.35
2022-08-01T06:45:15.981Z,2.15
2022-08-01T06:47:50.659Z,2.28
2022-08-01T06:50:19.000Z,2.17
2022-08-01T06:52:47.213Z,2.00
2022-08-01T06:55:15.612Z,1.80
2022-08-01T06:57:50.800Z,2.22
2022-08-01T07:00:23.329Z,2.35
2022-08-01T07:02:52.802Z,1.90
2022-08-01T07:05:21.281Z,2.00
2022-08-01T07:07:49.131Z,2.00
2022-08-01T07:10:17.081Z,2.30
2022-08-01T07:12:45.384Z,2.30
2022-08-01T07:15:14.887Z,2.00
2022-08-01T07:17:44.235Z,2.17
2022-08-01T07:20:16.185Z,1.90
2022-08-01T07:22:47.641Z,2.20
2022-08-01T07:27:44.659Z,2.25
2022-08-01T07:30:13.170Z,2.75
2022-08-01T07:32:41.030Z,2.85
2022-08-01T07:35:09.477Z,2.83
2022-08-01T07:37:42.170Z,2.60
2022-08-01T07:40:17.054Z,2.65
2022-08-01T07:45:14.826Z,2.72
2022-08-01T07:50:11.152Z,2.28
2022-08-01T07:52:40.577Z,2.60
2022-08-01T08:00:07.916Z,2.13
2022-08-01T08:02:35.839Z,2.00
2022-08-01T08:05:04.922Z,1.98
2022-08-01T08:07:33.533Z,2.15
2022-08-01T08:10:02.765Z,2.22
2022-08-01T08:12:30.649Z,2.30
2022-08-01T08:15:00.027Z,2.17
2022-08-01T08:17:27.906Z,1.92
2022-08-01T08:22:23.725Z,2.13
2022-08-01T08:24:51.565Z,2.10
2022-08-01T08:27:20.999Z,2.60
2022-08-01T08:29:48.836Z,2.50
2022-08-01T08:34:45.388Z,2.22
2022-08-01T08:37:13.871Z,2.00
2022-08-01T08:39:42.677Z,2.20
2022-08-01T08:42:11.550Z,2.03
2022-08-01T08:44:43.845Z,2.03
2022-08-01T08:47:19.423Z,2.10
2022-08-01T08:49:49.412Z,2.40
2022-08-01T08:52:17.895Z,2.00
2022-08-01T08:54:47.755Z,2.40
2022-08-01T08:57:16.618Z,1.92
2022-08-01T08:59:47.522Z,2.00
2022-08-01T09:02:15.394Z,2.00
2022-08-01T09:04:43.426Z,1.45
2022-08-01T09:07:12.823Z,2.17
2022-08-01T09:09:41.799Z,1.90
2022-08-01T09:12:10.991Z,2.08
2022-08-01T09:14:48.472Z,2.05
2022-08-01T09:17:17.453Z,2.17
2022-08-01T09:19:48.664Z,2.20
2022-08-01T09:22:19.691Z,2.20
2022-08-01T09:25:00.963Z,1.75
2022-08-01T09:27:28.890Z,1.80
2022-08-01T09:30:09.960Z,1.80
2022-08-01T09:32:45.907Z,1.98
2022-08-01T09:38:15.436Z,2.47
2022-08-01T09:40:47.355Z,1.98
2022-08-01T09:43:17.344Z,2.00
2022-08-01T09:45:49.199Z,2.03
2022-08-01T09:48:18.945Z,2.13
2022-08-01T09:50:48.072Z,2.17
2022-08-01T09:56:11.846Z,2.00
2022-08-01T09:58:58.979Z,1.88
2022-08-01T10:09:10.205Z,1.75
2022-08-01T10:11:40.234Z,1.52
2022-08-01T10:14:09.024Z,1.42
2022-08-01T10:16:38.978Z,1.45
2022-08-01T10:19:14.845Z,1.48
2022-08-01T10:21:56.388Z,1.70
2022-08-01T10:24:29.380Z,1.60
2022-08-01T10:27:05.956Z,1.88
2022-08-01T10:29:45.612Z,1.63
2022-08-01T10:32:18.212Z,1.70
2022-08-01T10:34:47.712Z,1.50
2022-08-01T10:37:18.215Z,1.60
2022-08-01T10:39:46.980Z,1.50
2022-08-01T10:42:15.546Z,1.80
2022-08-01T10:44:48.190Z,1.60
2022-08-01T10:47:27.103Z,1.38
2022-08-01T10:50:21.831Z,1.60
2022-08-01T10:53:15.200Z,2.00
2022-08-01T10:55:53.362Z,1.90
2022-08-01T10:58:28.219Z,1.60
2022-08-01T11:23:28.444Z,1.35
2022-08-01T11:31:37.804Z,1.48
2022-08-01T11:36:58.525Z,1.85
2022-08-01T11:39:24.448Z,1.60
2022-08-01T11:41:53.698Z,1.45
2022-08-01T11:44:28.329Z,1.30
2022-08-01T11:47:08.722Z,1.45
2022-08-01T11:52:25.955Z,1.50
2022-08-01T11:54:55.772Z,1.50
2022-08-01T12:07:38.158Z,1.80
2022-08-01T12:12:37.836Z,1.58
2022-08-01T12:35:08.979Z,2.00
2022-08-01T12:37:38.217Z,1.80
2022-08-01T12:40:15.534Z,1.80
2022-08-01T12:42:44.897Z,1.92
2022-08-01T12:45:15.261Z,1.70
2022-08-01T12:50:15.139Z,1.98
2022-08-01T12:55:15.970Z,1.50
2022-08-01T12:57:46.681Z,1.67
2022-08-01T13:02:47.458Z,2.30
2022-08-01T13:07:50.107Z,2.10
2022-08-01T13:12:58.816Z,2.25
2022-08-01T13:20:34.973Z,2.35
2022-08-01T13:25:55.829Z,2.00
2022-08-01T13:48:29.322Z,2.22
2022-08-01T13:51:21.125Z,2.10
2022-08-01T13:53:45.937Z,2.40
2022-08-01T13:56:17.251Z,2.25
2022-08-01T13:58:45.340Z,2.42
2022-08-01T14:01:16.316Z,2.60
2022-08-01T14:13:48.536Z,2.22
2022-08-01T14:26:12.268Z,2.65
2022-08-01T14:33:38.490Z,2.22
2022-08-01T14:36:30.526Z,1.98
2022-08-01T14:46:19.978Z,1.95
2022-08-01T14:48:47.883Z,1.80
2022-08-01T14:58:42.627Z,1.60
2022-08-01T15:06:10.635Z,1.70
2022-08-01T15:11:06.901Z,1.83
2022-08-01T15:18:35.601Z,1.98
2022-08-01T15:21:04.226Z,1.80
2022-08-01T15:25:59.954Z,1.90
2022-08-01T15:30:55.878Z,1.63
2022-08-01T15:35:53.902Z,2.08
2022-08-01T15:40:50.719Z,2.30
2022-08-01T15:53:13.811Z,2.50
2022-08-01T15:58:11.542Z,2.15
2022-08-01T16:05:42.908Z,2.70
2022-08-01T16:08:11.304Z,2.75
2022-08-01T16:15:37.615Z,2.30
2022-08-01T16:33:00.640Z,3.67
2022-08-01T16:35:45.014Z,2.83
2022-08-01T16:38:16.845Z,2.50
2022-08-01T16:43:17.063Z,3.13
2022-08-01T16:48:15.407Z,2.30
2022-08-01T16:50:44.418Z,2.63
2022-08-01T17:00:56.693Z,2.40
2022-08-01T17:06:14.445Z,2.60
2022-08-01T17:08:47.188Z,2.80
2022-08-01T17:16:16.224Z,2.97
2022-08-01T17:18:44.287Z,3.17
2022-08-01T17:23:40.506Z,2.67
2022-08-01T17:26:08.386Z,2.65
2022-08-01T17:33:44.770Z,3.00
2022-08-01T17:36:15.249Z,2.60
2022-08-01T17:38:43.321Z,3.80
2022-08-01T17:41:11.646Z,3.10
2022-08-01T17:51:06.568Z,2.88
2022-08-01T17:53:34.928Z,2.70
2022-08-01T17:56:05.841Z,3.55
2022-08-01T17:58:50.567Z,3.30
2022-08-01T18:03:49.870Z,2.90
2022-08-01T18:06:23.119Z,3.17
2022-08-01T18:08:53.202Z,3.15
2022-08-01T18:11:27.443Z,3.33
2022-08-01T18:13:56.487Z,3.33
2022-08-01T18:16:26.231Z,3.47
2022-08-01T18:18:55.842Z,4.00
2022-08-01T18:21:23.863Z,3.50
2022-08-01T18:26:21.085Z,2.88
2022-08-01T18:28:49.404Z,3.30
2022-08-01T18:33:49.987Z,2.60
2022-08-01T18:36:33.464Z,2.30
2022-08-01T18:39:04.520Z,2.83
2022-08-01T18:44:03.882Z,2.80
2022-08-01T18:46:35.756Z,3.33
2022-08-01T18:49:06.038Z,3.38
2022-08-01T18:54:02.118Z,3.45
2022-08-01T18:56:30.197Z,3.70
2022-08-01T19:01:26.134Z,3.83
2022-08-01T19:03:54.050Z,3.00
2022-08-01T19:06:24.790Z,3.83
2022-08-01T19:08:55.780Z,3.40
2022-08-01T19:11:26.241Z,3.45
2022-08-01T19:13:54.666Z,3.10
2022-08-01T19:16:23.383Z,3.22
2022-08-01T19:18:51.359Z,2.92
2022-08-01T19:24:06.454Z,2.83
2022-08-01T19:26:36.090Z,3.15
2022-08-01T19:29:10.503Z,2.90
2022-08-01T19:31:45.630Z,2.90
2022-08-01T19:34:18.429Z,3.08
2022-08-01T19:36:49.017Z,3.20
2022-08-01T19:39:21.782Z,3.20
2022-08-01T19:41:51.026Z,3.03
2022-08-01T19:44:20.697Z,3.05
2022-08-01T19:49:17.960Z,3.13
2022-08-01T19:51:50.262Z,3.40
2022-08-01T19:54:21.616Z,3.20
2022-08-01T19:56:51.932Z,3.38
2022-08-01T20:04:20.893Z,3.22
2022-08-01T20:09:20.094Z,3.65
2022-08-01T20:11:50.055Z,3.42
2022-08-01T20:14:20.977Z,3.55
2022-08-01T20:16:50.572Z,3.38
2022-08-01T20:19:19.733Z,3.60
2022-08-01T20:22:02.735Z,3.90
2022-08-01T20:24:39.567Z,3.67
2022-08-01T20:27:10.376Z,3.83
2022-08-01T20:29:39.106Z,3.65
2022-08-01T20:32:08.395Z,3.35
2022-08-01T20:34:38.279Z,3.25
2022-08-01T20:37:12.425Z,3.38
2022-08-01T20:39:45.018Z,3.22
2022-08-01T20:44:41.931Z,3.45
2022-08-01T20:49:38.783Z,3.78
2022-08-01T20:54:42.488Z,4.25
2022-08-01T20:57:23.727Z,3.65
2022-08-01T20:59:57.742Z,3.40
2022-08-01T21:02:38.132Z,3.70
2022-08-01T21:05:12.410Z,4.32
2022-08-01T21:07:45.735Z,3.90
2022-08-01T21:10:20.686Z,3.67
2022-08-01T21:13:03.132Z,3.75
2022-08-01T21:15:59.793Z,3.30
2022-08-01T21:18:39.230Z,3.63
2022-08-01T21:21:16.596Z,3.40
2022-08-01T21:23:55.524Z,3.53
2022-08-01T21:26:26.937Z,3.83
2022-08-01T21:29:01.925Z,3.60
2022-08-01T21:31:40.555Z,3.60
2022-08-01T21:34:10.052Z,3.05
2022-08-01T21:36:38.820Z,3.08
2022-08-01T21:39:08.597Z,2.95
2022-08-01T21:42:04.849Z,2.97
2022-08-01T21:44:30.172Z,2.70
2022-08-01T21:47:00.957Z,3.15
2022-08-01T21:49:29.493Z,2.30
2022-08-01T21:52:05.478Z,3.40
2022-08-01T21:54:45.453Z,2.35
2022-08-01T21:57:25.026Z,2.33
2022-08-01T22:00:04.324Z,2.33
2022-08-01T22:02:39.485Z,2.50
2022-08-01T22:05:09.793Z,2.10
2022-08-01T22:07:43.608Z,2.40
2022-08-01T22:10:16.247Z,2.30
2022-08-01T22:12:45.329Z,1.95
2022-08-01T22:15:15.559Z,2.53
2022-08-01T22:17:44.941Z,2.28
2022-08-01T22:20:13.995Z,2.13
2022-08-01T22:22:51.220Z,2.38
2022-08-01T22:25:20.789Z,2.70
2022-08-01T22:28:06.569Z,2.33
2022-08-01T22:30:42.337Z,2.10
2022-08-01T22:33:16.468Z,2.20
2022-08-01T22:35:47.000Z,2.13
2022-08-01T22:38:15.215Z,2.00
2022-08-01T22:43:26.325Z,2.10
2022-08-01T22:46:06.215Z,2.03
2022-08-01T22:48:42.731Z,2.08
2022-08-01T22:51:23.400Z,2.13
2022-08-01T22:53:58.427Z,2.47
2022-08-01T22:56:26.289Z,2.65
2022-08-01T22:58:56.868Z,2.40
2022-08-01T23:01:29.976Z,2.70
2022-08-01T23:04:00.503Z,2.53
2022-08-01T23:06:39.006Z,2.15
2022-08-01T23:09:08.220Z,2.20
2022-08-01T23:11:36.460Z,2.10
2022-08-01T23:14:04.940Z,2.33
2022-08-01T23:16:36.328Z,2.40
2022-08-01T23:19:04.884Z,2.17
2022-08-01T23:24:02.502Z,2.58
2022-08-01T23:28:59.548Z,2.25
2022-08-01T23:34:20.038Z,2.38
2022-08-01T23:36:48.058Z,2.00
2022-08-01T23:39:15.843Z,1.80
2022-08-01T23:41:57.947Z,2.22
2022-08-01T23:44:26.996Z,1.95
2022-08-01T23:46:55.011Z,2.50
2022-08-01T23:49:24.312Z,2.08
2022-08-01T23:51:52.382Z,2.13
2022-08-01T23:54:20.341Z,2.20
2022-08-01T23:56:48.520Z,1.90
